Time;durP1;ratioP1;P1;durP2;ratioP2;P2;SDS_P1;SDS_P2;PMS_P1;PMS_P2;Temp;Humidity;BMP_temperature;BMP_pressure;BME280_temperature;BME280_humidity;BME280_pressure;Samples;Min_cycle;Max_cycle;Signal;HPM_P1;HPM_P2
2022/03/18 00:02:24;;;;;;;15.50;6.45;;;3.70;99.90;;;;;;5055174;28;20067;-67
2022/03/18 00:04:52;;;;;;;15.88;6.18;;;3.70;99.90;;;;;;5055094;28;20076;-66
2022/03/18 00:07:20;;;;;;;14.35;6.05;;;3.60;99.90;;;;;;5055588;28;20056;-67
2022/03/18 00:09:47;;;;;;;15.07;6.05;;;3.60;99.90;;;;;;5055076;28;20021;-66
2022/03/18 00:12:13;;;;;;;11.93;5.15;;;3.60;99.90;;;;;;5055549;28;20024;-67
2022/03/18 00:14:39;;;;;;;10.57;4.80;;;3.50;99.90;;;;;;5054979;28;20029;-65
2022/03/18 00:17:06;;;;;;;13.80;5.88;;;3.50;99.90;;;;;;5037032;28;20134;-67
2022/03/18 00:19:33;;;;;;;10.43;4.78;;;3.50;99.90;;;;;;5054838;28;20385;-65
2022/03/18 00:22:01;;;;;;;12.57;5.30;;;3.40;99.90;;;;;;5036967;28;20095;-67
2022/03/18 00:24:28;;;;;;;10.00;6.03;;;3.40;99.90;;;;;;5054653;28;20021;-65
2022/03/18 00:26:53;;;;;;;9.40;4.50;;;3.30;99.90;;;;;;5055196;28;20024;-67
2022/03/18 00:29:19;;;;;;;10.15;5.03;;;3.30;99.90;;;;;;5054921;28;20029;-66
2022/03/18 00:31:45;;;;;;;10.80;5.50;;;3.30;99.90;;;;;;5054883;28;20065;-66
2022/03/18 00:34:10;;;;;;;9.77;5.63;;;3.30;99.90;;;;;;5054821;28;20108;-67
2022/03/18 00:36:37;;;;;;;10.32;5.30;;;3.30;99.90;;;;;;5054763;28;20021;-65
2022/03/18 00:39:03;;;;;;;13.73;5.93;;;3.20;99.90;;;;;;5054458;28;20025;-65
2022/03/18 00:41:29;;;;;;;10.70;5.45;;;3.20;99.90;;;;;;5054432;28;20031;-64
2022/03/18 00:43:55;;;;;;;10.85;6.05;;;3.30;99.90;;;;;;5054382;28;20107;-67
2022/03/18 00:46:22;;;;;;;13.02;5.53;;;3.30;99.90;;;;;;5054275;28;20112;-67
2022/03/18 00:54:20;;;;;;;11.35;5.65;;;3.00;99.90;;;;;;5054716;28;20035;-67
2022/03/18 00:56:46;;;;;;;9.52;5.13;;;3.10;99.90;;;;;;5054034;28;20024;-68
2022/03/18 00:59:11;;;;;;;12.00;5.93;;;3.00;99.90;;;;;;5054027;28;20494;-65
2022/03/18 01:01:37;;;;;;;11.68;4.75;;;2.90;99.90;;;;;;5054307;28;20074;-68
2022/03/18 01:04:04;;;;;;;13.98;5.20;;;2.90;99.90;;;;;;5054260;28;20485;-67
2022/03/18 01:06:31;;;;;;;9.77;4.30;;;2.80;99.90;;;;;;5053607;28;20136;-66
2022/03/18 01:08:57;;;;;;;17.20;5.68;;;2.80;99.90;;;;;;5053921;28;20032;-67
2022/03/18 01:11:23;;;;;;;11.35;5.32;;;2.80;99.90;;;;;;5053870;28;20021;-67
2022/03/18 01:13:48;;;;;;;12.57;5.40;;;2.80;99.90;;;;;;5053854;28;20382;-66
2022/03/18 01:16:14;;;;;;;12.38;5.85;;;2.70;99.90;;;;;;5053776;28;20507;-67
2022/03/18 01:18:40;;;;;;;15.80;5.20;;;2.70;99.90;;;;;;5053734;28;20108;-66
2022/03/18 01:21:05;;;;;;;12.15;5.20;;;2.80;99.90;;;;;;5053130;28;20013;-66
2022/03/18 01:23:31;;;;;;;9.18;4.93;;;2.70;99.90;;;;;;5053915;28;20366;-65
2022/03/18 01:25:57;;;;;;;14.13;5.60;;;2.70;99.90;;;;;;5054044;28;20025;-67
2022/03/18 01:28:23;;;;;;;13.93;6.30;;;2.60;99.90;;;;;;5053813;28;20083;-68
2022/03/18 01:30:50;;;;;;;13.27;6.28;;;2.70;99.90;;;;;;5053603;28;20448;-67
2022/03/18 01:33:15;;;;;;;15.15;6.20;;;2.80;99.90;;;;;;5053851;28;20053;-65
2022/03/18 01:35:41;;;;;;;13.02;5.70;;;2.70;99.90;;;;;;5053458;28;20411;-67
2022/03/18 01:38:07;;;;;;;10.98;5.38;;;2.60;99.90;;;;;;5053475;28;20393;-66
2022/03/18 01:40:33;;;;;;;12.70;5.80;;;2.70;99.90;;;;;;5053672;28;20104;-65
2022/03/18 01:42:59;;;;;;;14.15;6.10;;;2.60;99.90;;;;;;5053369;28;20057;-65
2022/03/18 01:45:25;;;;;;;13.15;5.55;;;2.60;99.90;;;;;;5053224;28;20100;-65
2022/03/18 01:47:51;;;;;;;15.65;6.10;;;2.60;99.90;;;;;;5053293;28;20017;-67
2022/03/18 01:50:17;;;;;;;11.90;5.78;;;2.50;99.90;;;;;;5053787;28;20066;-67
2022/03/18 01:52:44;;;;;;;8.35;4.95;;;2.50;99.90;;;;;;5053202;28;20021;-66
2022/03/18 01:55:10;;;;;;;11.85;6.07;;;2.50;99.90;;;;;;5053273;28;20029;-65
2022/03/18 01:57:36;;;;;;;11.60;5.90;;;2.40;99.90;;;;;;5053165;28;20033;-65
2022/03/18 02:00:05;;;;;;;12.23;6.13;;;2.30;99.90;;;;;;5053145;28;20036;-65
2022/03/18 02:02:31;;;;;;;14.60;6.00;;;2.40;99.90;;;;;;5053596;28;20381;-67
2022/03/18 02:04:57;;;;;;;12.55;5.43;;;2.40;99.90;;;;;;5052807;28;20032;-68
2022/03/18 02:07:23;;;;;;;11.95;5.47;;;2.50;99.90;;;;;;5053062;28;20478;-68
2022/03/18 02:09:49;;;;;;;12.77;4.95;;;2.40;99.90;;;;;;5053036;28;20020;-67
2022/03/18 02:12:15;;;;;;;14.80;5.93;;;2.30;99.90;;;;;;5052996;28;20028;-67
2022/03/18 02:14:45;;;;;;;11.68;5.70;;;2.30;99.90;;;;;;5053240;28;20022;-65
2022/03/18 02:17:14;;;;;;;14.68;5.88;;;2.30;99.90;;;;;;5053055;28;20035;-68
2022/03/18 02:19:41;;;;;;;12.90;5.65;;;2.30;99.90;;;;;;5052962;28;20087;-65
2022/03/18 02:22:12;;;;;;;11.60;5.85;;;2.30;99.90;;;;;;5052940;28;20031;-66
2022/03/18 02:24:39;;;;;;;15.48;6.20;;;2.30;99.90;;;;;;5053058;28;20021;-67
2022/03/18 02:27:05;;;;;;;11.95;6.05;;;2.30;99.90;;;;;;5053144;28;20489;-66
2022/03/18 02:29:32;;;;;;;12.20;5.60;;;2.20;99.90;;;;;;5052811;28;20025;-68
2022/03/18 02:31:57;;;;;;;18.17;8.52;;;2.10;99.90;;;;;;5053801;28;20440;-66
2022/03/18 02:34:23;;;;;;;13.63;5.47;;;2.10;99.90;;;;;;5056770;28;20021;-66
2022/03/18 02:36:50;;;;;;;10.50;5.10;;;2.00;99.90;;;;;;5056777;28;20146;-66
2022/03/18 02:39:15;;;;;;;13.57;5.85;;;2.00;99.90;;;;;;5057008;28;20497;-66
2022/03/18 02:41:41;;;;;;;11.20;5.97;;;2.00;99.90;;;;;;5056695;28;20029;-66
2022/03/18 02:44:07;;;;;;;13.82;5.88;;;1.90;99.90;;;;;;5056917;28;20038;-67
2022/03/18 02:46:33;;;;;;;11.80;5.43;;;1.90;99.90;;;;;;5057092;28;20465;-68
2022/03/18 02:49:01;;;;;;;9.32;4.80;;;1.90;99.90;;;;;;5056541;28;20029;-65
2022/03/18 02:51:27;;;;;;;14.48;5.72;;;1.90;99.90;;;;;;5038698;28;20409;-67
2022/03/18 02:53:53;;;;;;;9.55;5.68;;;1.80;99.90;;;;;;5056434;28;20385;-65
2022/03/18 02:56:19;;;;;;;12.73;5.63;;;1.80;99.90;;;;;;5056382;28;20021;-67
2022/03/18 02:58:45;;;;;;;11.32;6.15;;;1.90;99.90;;;;;;5056408;28;20551;-66
2022/03/18 03:01:11;;;;;;;10.57;5.05;;;1.90;99.90;;;;;;5056371;28;20029;-65
2022/03/18 03:03:36;;;;;;;11.05;5.43;;;1.90;99.90;;;;;;5056365;28;20025;-66
2022/03/18 03:08:46;;;;;;;13.50;5.63;;;1.90;99.90;;;;;;5076291;28;20035;-68
2022/03/18 03:11:12;;;;;;;12.45;5.93;;;1.90;99.90;;;;;;5076163;28;20024;-66
2022/03/18 03:13:37;;;;;;;18.00;5.88;;;2.00;99.90;;;;;;5076197;28;20459;-65
2022/03/18 03:16:04;;;;;;;12.23;6.50;;;2.00;99.90;;;;;;5076109;28;20056;-65
2022/03/18 03:18:29;;;;;;;10.13;5.90;;;1.90;99.90;;;;;;5076081;28;20021;-68
2022/03/18 03:20:58;;;;;;;10.85;5.88;;;1.90;99.90;;;;;;5075993;28;20485;-65
2022/03/18 03:23:25;;;;;;;10.57;5.57;;;1.80;99.90;;;;;;5075971;28;20095;-66
2022/03/18 03:25:54;;;;;;;13.45;5.30;;;1.80;99.90;;;;;;5075781;28;20029;-67
2022/03/18 03:28:21;;;;;;;15.60;6.32;;;1.80;99.90;;;;;;5075876;28;20503;-67
2022/03/18 03:30:48;;;;;;;8.38;4.82;;;1.70;99.90;;;;;;5075875;28;20024;-67
2022/03/18 03:33:14;;;;;;;11.60;5.00;;;1.60;99.90;;;;;;5075827;28;20106;-67
2022/03/18 03:35:40;;;;;;;14.48;5.35;;;1.60;99.90;;;;;;5076034;28;20106;-68
2022/03/18 03:38:06;;;;;;;11.95;5.30;;;1.50;99.90;;;;;;5075953;28;20086;-65
2022/03/18 03:40:32;;;;;;;12.73;4.97;;;1.60;99.90;;;;;;5076160;28;20032;-66
2022/03/18 03:42:58;;;;;;;15.23;5.38;;;1.60;99.90;;;;;;5075300;28;20086;-68
2022/03/18 03:45:24;;;;;;;15.88;5.63;;;1.60;99.90;;;;;;5075763;28;20025;-66
2022/03/18 03:47:51;;;;;;;16.42;5.97;;;1.60;99.90;;;;;;5075528;28;20031;-67
2022/03/18 03:50:17;;;;;;;15.13;5.25;;;1.60;99.90;;;;;;5075448;28;20032;-66
2022/03/18 03:52:43;;;;;;;14.55;5.47;;;1.60;99.90;;;;;;5075719;28;20016;-66
2022/03/18 03:55:11;;;;;;;15.48;6.97;;;1.70;99.90;;;;;;5075589;28;20056;-68
2022/03/18 03:57:38;;;;;;;11.30;6.43;;;1.60;99.90;;;;;;5075876;28;20033;-68
2022/03/18 04:00:06;;;;;;;14.10;6.35;;;1.60;99.90;;;;;;5075288;28;20042;-66
2022/03/18 04:02:31;;;;;;;21.50;6.50;;;1.50;99.90;;;;;;5075525;28;20439;-66
2022/03/18 04:04:57;;;;;;;13.32;6.05;;;1.50;99.90;;;;;;5072244;28;20033;-67
2022/03/18 04:07:25;;;;;;;11.65;6.30;;;1.50;99.90;;;;;;5055372;28;20473;-67
2022/03/18 04:09:53;;;;;;;15.02;6.80;;;1.60;99.90;;;;;;5055029;28;20515;-67
2022/03/18 04:12:20;;;;;;;15.55;6.88;;;1.60;99.90;;;;;;5055035;28;20098;-66
2022/03/18 04:14:47;;;;;;;12.88;7.00;;;1.60;99.90;;;;;;5055025;28;20462;-66
2022/03/18 04:17:13;;;;;;;12.20;6.03;;;1.60;99.90;;;;;;5054923;28;20496;-65
2022/03/18 04:19:39;;;;;;;13.70;7.82;;;1.60;99.90;;;;;;5054833;28;20017;-66
2022/03/18 04:22:05;;;;;;;17.77;7.07;;;1.50;99.90;;;;;;5054852;28;20456;-65
2022/03/18 04:24:31;;;;;;;13.63;6.45;;;1.40;99.90;;;;;;5054820;28;20097;-67
2022/03/18 04:26:57;;;;;;;16.30;6.43;;;1.40;99.90;;;;;;5054743;28;20078;-68
2022/03/18 04:29:23;;;;;;;12.90;6.03;;;1.40;99.90;;;;;;5054690;28;20108;-67
2022/03/18 04:31:49;;;;;;;12.90;5.50;;;1.40;99.90;;;;;;5054652;28;20057;-67
2022/03/18 04:34:15;;;;;;;9.85;4.88;;;1.50;99.90;;;;;;5054591;28;20385;-65
2022/03/18 04:36:41;;;;;;;15.52;8.15;;;1.40;99.90;;;;;;5054613;28;20028;-65
2022/03/18 04:39:06;;;;;;;16.55;9.40;;;1.40;99.90;;;;;;5054547;28;20386;-68
2022/03/18 04:41:32;;;;;;;14.73;6.63;;;1.40;99.90;;;;;;5054756;28;20029;-67
2022/03/18 04:43:58;;;;;;;17.38;6.35;;;1.40;99.90;;;;;;5054452;28;20013;-65
2022/03/18 04:46:23;;;;;;;16.55;6.20;;;1.30;99.90;;;;;;5054630;28;20029;-67
2022/03/18 04:48:49;;;;;;;11.02;5.45;;;1.40;99.90;;;;;;5054336;28;20025;-65
2022/03/18 04:51:15;;;;;;;13.25;5.78;;;1.40;99.90;;;;;;5054801;28;20032;-66
2022/03/18 04:53:42;;;;;;;12.13;7.35;;;1.30;99.90;;;;;;5054031;28;20028;-67
2022/03/18 04:57:15;;;;;;;10.95;6.25;;;1.40;99.90;;;;;;5053412;28;20036;-66
2022/03/18 04:58:53;;;;;;;10.82;4.50;;;1.40;99.90;;;;;;5053853;28;20029;-67
2022/03/18 05:01:20;;;;;;;11.02;5.55;;;1.30;99.90;;;;;;5054342;28;20108;-67
2022/03/18 05:03:46;;;;;;;9.23;4.70;;;1.20;99.90;;;;;;5054354;28;20104;-66
2022/03/18 05:06:12;;;;;;;15.25;5.78;;;1.10;99.90;;;;;;5053816;28;20480;-67
2022/03/18 05:08:38;;;;;;;8.93;4.50;;;1.10;99.90;;;;;;5053962;28;20025;-65
2022/03/18 05:11:03;;;;;;;11.43;5.10;;;1.00;99.90;;;;;;5054454;28;20028;-68
2022/03/18 05:13:29;;;;;;;10.20;4.65;;;1.00;99.90;;;;;;5053886;28;20035;-66
2022/03/18 05:15:56;;;;;;;16.60;5.32;;;1.00;99.90;;;;;;5053812;28;20435;-67
2022/03/18 05:18:22;;;;;;;8.00;4.63;;;1.00;99.90;;;;;;5054055;28;20109;-65
2022/03/18 05:20:47;;;;;;;10.85;5.43;;;1.00;99.90;;;;;;5054308;28;20107;-68
2022/03/18 05:23:14;;;;;;;16.75;5.35;;;1.00;99.90;;;;;;5053714;28;20021;-66
2022/03/18 05:25:40;;;;;;;13.18;4.95;;;1.10;99.90;;;;;;5053482;28;20024;-66
2022/03/18 05:28:07;;;;;;;14.35;5.53;;;1.10;99.90;;;;;;5054179;28;20040;-66
2022/03/18 05:30:34;;;;;;;14.95;6.20;;;1.20;99.90;;;;;;5053567;28;20067;-67
2022/03/18 05:33:00;;;;;;;12.93;6.82;;;1.30;99.90;;;;;;5053526;28;20470;-68
2022/03/18 05:35:26;;;;;;;16.80;6.13;;;1.30;99.90;;;;;;5053469;28;20057;-66
2022/03/18 05:37:52;;;;;;;13.25;6.28;;;1.20;99.90;;;;;;5053438;28;20021;-68
2022/03/18 05:40:18;;;;;;;20.40;6.72;;;1.40;99.90;;;;;;5053697;28;20028;-67
2022/03/18 05:42:47;;;;;;;15.13;7.15;;;1.30;99.90;;;;;;5053613;28;20025;-65
2022/03/18 05:45:14;;;;;;;13.48;7.57;;;1.30;99.90;;;;;;5053329;28;20025;-65
2022/03/18 05:47:40;;;;;;;11.48;6.90;;;1.30;99.90;;;;;;5053308;28;20017;-64
2022/03/18 05:50:07;;;;;;;10.80;5.32;;;1.30;99.90;;;;;;5053533;28;20025;-66
2022/03/18 05:52:35;;;;;;;11.80;5.80;;;1.30;99.90;;;;;;5053215;28;20079;-67
2022/03/18 05:55:00;;;;;;;10.82;6.47;;;1.30;99.90;;;;;;5053385;28;20039;-66
2022/03/18 05:57:27;;;;;;;11.05;6.32;;;1.50;99.90;;;;;;5053477;28;20025;-65
2022/03/18 05:59:55;;;;;;;13.20;6.22;;;1.40;99.90;;;;;;5053450;28;20071;-67
2022/03/18 06:02:21;;;;;;;14.50;6.38;;;1.40;99.90;;;;;;5053123;28;20028;-65
2022/03/18 06:04:47;;;;;;;11.40;5.07;;;1.40;99.90;;;;;;5053135;28;20033;-67
2022/03/18 06:07:14;;;;;;;13.48;6.95;;;1.50;99.90;;;;;;5052881;28;20100;-66
2022/03/18 06:12:24;;;;;;;16.05;7.00;;;1.50;99.90;;;;;;5053313;28;20059;-66
2022/03/18 06:14:49;;;;;;;13.02;7.00;;;1.40;99.90;;;;;;5053066;28;20056;-66
2022/03/18 06:17:15;;;;;;;13.88;6.68;;;1.40;99.90;;;;;;5052999;28;20028;-68
2022/03/18 06:19:41;;;;;;;12.30;4.38;;;1.50;99.90;;;;;;5053221;28;20124;-66
2022/03/18 06:22:08;;;;;;;13.63;5.43;;;1.80;99.90;;;;;;5052975;28;20104;-66
2022/03/18 06:24:34;;;;;;;11.73;5.35;;;1.80;99.90;;;;;;5053157;28;20017;-66
2022/03/18 06:27:01;;;;;;;10.02;5.28;;;1.80;99.90;;;;;;5053116;28;20530;-67
2022/03/18 06:29:29;;;;;;;14.55;5.60;;;1.70;99.90;;;;;;5052868;28;20025;-67
2022/03/18 06:31:56;;;;;;;9.90;4.00;;;1.80;99.90;;;;;;5053418;28;20024;-67
2022/03/18 06:34:22;;;;;;;18.90;4.50;;;2.10;99.90;;;;;;5053342;28;20350;-66
2022/03/18 06:36:53;;;;;;;9.30;5.05;;;2.20;99.90;;;;;;5052735;28;20568;-65
2022/03/18 06:39:25;;;;;;;;;;;2.20;99.90;;;;;;5053216;28;20031;-64
2022/03/18 06:41:51;;;;;;;9.27;5.10;;;2.20;99.90;;;;;;5034652;28;20289;-66
2022/03/18 06:44:17;;;;;;;9.82;5.57;;;2.10;99.90;;;;;;5052676;28;20022;-66
2022/03/18 06:46:43;;;;;;;8.75;4.15;;;1.90;99.90;;;;;;5052594;28;20025;-68
2022/03/18 06:49:09;;;;;;;13.95;4.78;;;2.10;99.90;;;;;;5052931;28;20029;-65
2022/03/18 06:51:35;;;;;;;12.45;4.57;;;2.60;99.90;;;;;;5052656;28;20029;-68
2022/03/18 06:54:01;;;;;;;18.05;5.03;;;2.90;99.90;;;;;;5052632;28;20114;-65
2022/03/18 06:56:30;;;;;;;14.88;4.55;;;3.10;99.90;;;;;;5052613;28;20025;-66
2022/03/18 06:58:57;;;;;;;16.00;4.95;;;3.30;99.90;;;;;;5052862;28;20052;-67
2022/03/18 07:01:23;;;;;;;14.80;5.05;;;3.50;99.90;;;;;;5052543;28;20025;-67
2022/03/18 07:03:49;;;;;;;14.52;4.38;;;3.60;99.90;;;;;;5052828;28;20017;-67
2022/03/18 07:06:14;;;;;;;12.10;4.40;;;3.60;99.90;;;;;;5057692;28;20193;-67
2022/03/18 07:08:40;;;;;;;32.83;7.18;;;3.70;99.90;;;;;;5072535;28;20024;-65
2022/03/18 07:11:06;;;;;;;21.50;9.68;;;3.90;99.90;;;;;;5072511;28;20393;-67
2022/03/18 07:13:33;;;;;;;19.27;8.20;;;4.10;99.90;;;;;;5073068;28;20021;-65
2022/03/18 07:17:54;;;;;;;16.55;6.70;;;4.30;99.90;;;;;;5072766;28;20443;-68
2022/03/18 07:18:45;;;;;;;11.63;5.25;;;4.40;99.90;;;;;;5074158;28;20025;-65
2022/03/18 07:21:10;;;;;;;13.80;5.85;;;4.60;99.90;;;;;;5076556;28;20508;-67
2022/03/18 07:23:36;;;;;;;13.57;5.97;;;4.70;99.90;;;;;;5076003;28;20099;-67
2022/03/18 07:26:02;;;;;;;14.63;5.50;;;4.80;99.90;;;;;;5075882;28;20130;-66
2022/03/18 07:28:27;;;;;;;16.70;5.32;;;4.90;99.90;;;;;;5075888;28;20021;-65
2022/03/18 07:30:53;;;;;;;12.13;5.07;;;4.90;99.90;;;;;;5075601;28;20457;-68
2022/03/18 07:33:19;;;;;;;21.17;13.90;;;5.10;99.90;;;;;;5075602;28;20027;-73
2022/03/18 07:35:44;;;;;;;17.95;13.55;;;5.20;99.90;;;;;;5075848;28;20099;-74
2022/03/18 07:38:10;;;;;;;32.22;22.15;;;5.30;99.90;;;;;;5075677;28;20033;-74
2022/03/18 07:40:37;;;;;;;22.80;14.38;;;5.40;99.90;;;;;;5074392;28;20402;-72
2022/03/18 07:43:05;;;;;;;24.05;13.60;;;5.40;99.90;;;;;;5075973;28;20020;-72
2022/03/18 07:45:33;;;;;;;13.15;8.93;;;5.50;99.90;;;;;;5075851;28;20459;-73
2022/03/18 07:48:00;;;;;;;15.93;8.55;;;5.70;99.90;;;;;;5075577;28;20009;-69
2022/03/18 07:50:28;;;;;;;15.80;6.57;;;5.80;99.90;;;;;;5075554;28;20070;-71
2022/03/18 07:52:56;;;;;;;14.93;6.53;;;6.00;99.90;;;;;;5075771;28;20017;-77
2022/03/18 07:55:26;;;;;;;9.23;5.25;;;6.30;99.90;;;;;;5075357;28;20025;-74
2022/03/18 07:57:53;;;;;;;14.52;5.25;;;6.50;99.90;;;;;;5075780;28;20533;-72
2022/03/18 08:00:20;;;;;;;15.05;7.93;;;6.70;99.90;;;;;;5075645;28;20029;-72
2022/03/18 08:02:47;;;;;;;19.35;5.60;;;6.90;99.90;;;;;;5075297;28;20108;-74
2022/03/18 08:05:13;;;;;;;13.77;5.82;;;7.20;99.90;;;;;;5070479;28;20132;-70
2022/03/18 08:07:39;;;;;;;10.75;5.85;;;;;;;;;;5055512;28;20021;-74
2022/03/18 08:10:06;;;;;;;11.05;4.57;;;;;;;;;;5055159;28;20022;-75
2022/03/18 08:12:32;;;;;;;10.93;4.63;;;;;;;;;;5055103;28;20027;-73
2022/03/18 08:14:59;;;;;;;9.10;4.10;;;;;;;;;;5055307;28;20102;-75
2022/03/18 08:17:25;;;;;;;12.05;5.45;;;;;;;;;;5055284;28;20048;-75
2022/03/18 08:19:52;;;;;;;10.30;4.63;;;;;;;;;;5054930;28;20021;-75
2022/03/18 08:22:21;;;;;;;11.35;4.88;;;;;;;;;;5054874;28;20025;-75
2022/03/18 08:24:48;;;;;;;12.70;6.28;;;;;;;;;;5054628;28;20025;-73
2022/03/18 08:27:14;;;;;;;10.43;5.32;;;;;;;;;;5055294;28;20036;-73
2022/03/18 08:29:40;;;;;;;9.18;4.50;;;;;;;;;;5054660;28;20444;-71
2022/03/18 08:32:07;;;;;;;9.30;4.85;;;;;;;;;;5054686;28;20074;-73
2022/03/18 08:34:33;;;;;;;12.55;5.53;;;;;;;;;;5054631;28;20096;-74
2022/03/18 08:37:00;;;;;;;11.13;5.45;;;;;;;;;;5036702;28;20067;-73
2022/03/18 08:39:26;;;;;;;11.43;4.75;;;;;;;;;;5054611;28;20504;-73
2022/03/18 08:41:52;;;;;;;9.82;4.85;;;;;;;;;;5054531;28;20028;-75
2022/03/18 08:44:19;;;;;;;8.13;4.20;;;;;;;;;;5054512;28;20017;-71
2022/03/18 08:46:48;;;;;;;9.73;5.15;;;;;;;;;;5054700;28;20112;-73
2022/03/18 08:49:15;;;;;;;8.90;5.30;;;;;;;;;;5054645;28;20021;-75
2022/03/18 08:51:41;;;;;;;10.82;4.97;;;;;;;;;;5054325;28;20033;-73
2022/03/18 08:54:07;;;;;;;10.68;4.78;;;;;;;;;;5054560;28;20021;-75
2022/03/18 08:56:33;;;;;;;10.48;4.70;;;;;;;;;;5054200;28;20033;-72
2022/03/18 08:58:58;;;;;;;12.80;5.45;;;7.60;99.90;;;;;;5054180;28;20496;-72
2022/03/18 09:01:25;;;;;;;11.38;4.68;;;30.70;43.00;;;;;;5054148;28;20025;-72
2022/03/18 09:03:52;;;;;;;10.75;4.80;;;30.20;41.90;;;;;;5054157;28;20029;-72
2022/03/18 09:06:17;;;;;;;14.70;4.90;;;29.80;42.30;;;;;;5053859;28;20073;-71
2022/03/18 09:08:44;;;;;;;8.52;4.80;;;30.20;41.20;;;;;;5054261;28;20076;-71
2022/03/18 09:11:10;;;;;;;10.32;5.00;;;30.20;41.30;;;;;;5054077;28;20017;-71
2022/03/18 09:13:36;;;;;;;9.15;4.20;;;30.80;41.10;;;;;;5054231;28;20024;-70
2022/03/18 09:16:04;;;;;;;7.47;4.00;;;30.80;40.50;;;;;;5053912;28;20021;-72
2022/03/18 09:18:30;;;;;;;7.93;4.05;;;31.10;39.70;;;;;;5053870;28;20036;-71
2022/03/18 09:20:56;;;;;;;11.65;7.10;;;30.90;40.30;;;;;;5053804;28;20024;-70
2022/03/18 09:23:22;;;;;;;5.80;3.67;;;;;;;;;;5053743;28;20032;-70
2022/03/18 09:25:48;;;;;;;7.95;3.45;;;;;;;;;;5053946;28;20029;-72
2022/03/18 09:28:14;;;;;;;6.20;3.88;;;31.60;39.80;;;;;;5053724;28;20021;-70
2022/03/18 09:30:41;;;;;;;7.40;3.80;;;30.70;38.70;;;;;;5054212;28;20095;-71
2022/03/18 09:33:07;;;;;;;8.68;3.90;;;;;;;;;;5053587;28;20017;-71
2022/03/18 09:35:33;;;;;;;6.90;3.53;;;;;;;;;;5053509;28;20040;-71
2022/03/18 09:37:59;;;;;;;7.63;3.88;;;;;;;;;;5053476;28;20035;-70
2022/03/18 09:40:25;;;;;;;8.48;3.75;;;;;;;;;;5053010;28;20053;-70
2022/03/18 09:42:54;;;;;;;8.00;3.78;;;;;;;;;;5053681;28;20021;-70
2022/03/18 09:45:21;;;;;;;;;;;;;;;;;;5053704;28;20029;-70
2022/03/18 09:47:48;;;;;;;10.90;3.67;;;;;;;;;;5053718;28;20413;-70
2022/03/18 09:50:14;;;;;;;8.27;3.50;;;;;;;;;;5053316;28;20436;-71
2022/03/18 09:52:40;;;;;;;7.20;3.42;;;;;;;;;;5053579;28;20474;-69
2022/03/18 09:55:06;;;;;;;7.50;3.58;;;;;;;;;;5053220;28;20060;-70
2022/03/18 09:57:32;;;;;;;6.38;3.80;;;;;;;;;;5053212;28;20401;-70
2022/03/18 09:59:58;;;;;;;7.95;4.47;;;;;;;;;;5053223;28;20477;-69
2022/03/18 10:02:29;;;;;;;13.63;4.63;;;31.00;35.90;;;;;;5053156;28;20074;-71
2022/03/18 10:04:59;;;;;;;7.35;3.70;;;;;;;;;;5053247;28;20070;-70
2022/03/18 10:07:26;;;;;;;8.07;3.60;;;;;;;;;;5053453;28;20029;-70
2022/03/18 10:10:07;;;;;;;7.30;3.92;;;;;;;;;;5053632;28;20017;-72
2022/03/18 10:12:37;;;;;;;6.40;3.88;;;;;;;;;;5053371;28;20017;-70
2022/03/18 10:15:04;;;;;;;9.77;4.30;;;;;;;;;;5053319;28;20029;-70
2022/03/18 10:17:42;;;;;;;8.32;4.50;;;;;;;;;;5053040;28;20029;-70
2022/03/18 10:20:23;;;;;;;24.55;19.70;;;;;;;;;;5053645;28;20036;-71
2022/03/18 10:22:49;;;;;;;10.35;3.50;;;;;;;;;;5053305;28;20389;-70
2022/03/18 10:25:34;;;;;;;16.35;13.55;;;;;;;;;;5052899;28;20111;-69
2022/03/18 10:28:00;;;;;;;20.63;17.48;;;;;;;;;;5053199;28;20022;-71
2022/03/18 10:30:26;;;;;;;5.63;3.85;;;31.10;36.20;;;;;;5052924;28;20385;-70
2022/03/18 10:32:53;;;;;;;9.25;5.57;;;31.80;33.70;;;;;;5052882;28;20031;-70
2022/03/18 10:38:28;;;;;;;6.78;2.92;;;;;;;;;;5052895;28;20124;-70
2022/03/18 10:40:55;;;;;;;7.78;3.60;;;;;;;;;;5052850;28;20025;-71
2022/03/18 10:43:21;;;;;;;7.53;3.22;;;;;;;;;;5034970;28;20476;-70
2022/03/18 10:46:04;;;;;;;9.00;6.32;;;;;;;;;;5052716;28;20021;-71
2022/03/18 10:48:31;;;;;;;7.35;3.28;;;;;;;;;;5053029;28;20099;-70
2022/03/18 10:51:07;;;;;;;5.95;2.70;;;;;;;;;;5053296;28;20022;-70
2022/03/18 10:53:34;;;;;;;5.32;2.60;;;;;;;;;;5054940;28;20500;-70
2022/03/18 10:56:02;;;;;;;6.43;3.00;;;;;;;;;;5056502;28;20032;-70
2022/03/18 10:58:32;;;;;;;5.53;2.53;;;;;;;;;;5038648;28;20025;-70
2022/03/18 11:01:00;;;;;;;3.63;2.30;;;;;;;;;;5056572;28;20104;-71
2022/03/18 11:03:26;;;;;;;5.43;2.57;;;;;;;;;;5056363;28;20369;-71
2022/03/18 11:05:52;;;;;;;5.00;2.47;;;;;;;;;;5056156;28;20045;-71
2022/03/18 11:08:22;;;;;;;4.60;2.50;;;;;;;;;;5056599;28;20527;-70
2022/03/18 11:11:07;;;;;;;5.22;2.53;;;;;;;;;;5056298;28;20023;-70
2022/03/18 11:13:48;;;;;;;7.78;3.05;;;;;;;;;;5056838;28;20021;-70
2022/03/18 11:16:16;;;;;;;4.82;2.75;;;;;;;;;;5056526;28;20047;-70
2022/03/18 11:18:44;;;;;;;6.13;2.65;;;;;;;;;;5038231;28;20036;-70
2022/03/18 11:21:10;;;;;;;5.80;2.50;;;31.30;34.10;;;;;;5056105;28;20025;-69
2022/03/18 11:23:38;;;;;;;4.68;2.60;;;;;;;;;;5056343;28;20021;-70
2022/03/18 11:26:04;;;;;;;6.10;2.47;;;29.90;33.90;;;;;;5056207;28;20033;-70
2022/03/18 11:28:30;;;;;;;5.43;2.45;;;29.10;33.50;;;;;;5056025;28;20021;-70
2022/03/18 11:31:06;;;;;;;5.53;2.63;;;29.00;33.40;;;;;;5056208;28;20087;-70
2022/03/18 11:33:33;;;;;;;3.78;2.17;;;;;;;;;;5055858;28;20047;-69
2022/03/18 11:36:04;;;;;;;4.72;2.33;;;;;;;;;;5055821;28;20028;-69
2022/03/18 11:38:51;;;;;;;3.67;2.10;;;29.00;32.50;;;;;;5056106;28;20094;-69
2022/03/18 11:41:19;;;;;;;3.42;2.10;;;27.10;35.20;;;;;;5037805;28;20036;-70
2022/03/18 11:43:44;;;;;;;6.10;1.90;;;26.00;35.80;;;;;;5055672;28;20079;-70
2022/03/18 11:46:13;;;;;;;3.88;1.98;;;22.20;38.90;;;;;;5055528;28;20424;-70
2022/03/18 11:48:55;;;;;;;6.22;1.95;;;19.70;42.10;;;;;;5037716;28;20063;-70
2022/03/18 11:51:41;;;;;;;4.40;2.05;;;18.20;44.80;;;;;;5055791;28;20036;-69
2022/03/18 11:54:23;;;;;;;5.35;1.70;;;17.10;46.10;;;;;;5055778;28;20013;-69
2022/03/18 11:56:54;;;;;;;4.60;2.25;;;16.40;47.50;;;;;;5055425;28;20079;-70
2022/03/18 11:59:25;;;;;;;7.82;2.30;;;16.20;47.20;;;;;;5055407;28;20073;-70
2022/03/18 12:01:54;;;;;;;5.03;2.55;;;16.00;47.80;;;;;;5055357;28;20028;-70
2022/03/18 12:04:42;;;;;;;4.72;2.35;;;16.00;48.30;;;;;;5055375;28;20028;-70
2022/03/18 12:07:25;;;;;;;4.22;2.17;;;16.10;48.20;;;;;;5055716;28;20497;-70
2022/03/18 12:09:57;;;;;;;4.22;1.90;;;15.90;48.00;;;;;;5055469;28;20021;-70
2022/03/18 12:12:40;;;;;;;4.65;1.92;;;15.80;47.70;;;;;;5055370;28;20401;-70
2022/03/18 12:15:09;;;;;;;6.65;2.20;;;16.00;48.00;;;;;;5055395;28;20025;-70
2022/03/18 12:18:01;;;;;;;2.28;1.65;;;16.20;47.90;;;;;;5055037;28;20084;-70
2022/03/18 12:20:30;;;;;;;4.65;2.17;;;16.00;46.30;;;;;;5053736;28;20488;-69
2022/03/18 12:22:58;;;;;;;4.60;1.83;;;16.00;46.40;;;;;;5054962;28;20014;-71
2022/03/18 12:25:24;;;;;;;5.10;1.80;;;15.90;45.30;;;;;;5054799;28;20094;-70
2022/03/18 12:27:54;;;;;;;4.60;1.90;;;16.10;46.40;;;;;;5054825;28;20029;-70
2022/03/18 12:30:23;;;;;;;3.97;1.70;;;;;;;;;;5055096;28;20032;-70
2022/03/18 12:32:59;;;;;;;3.42;1.95;;;;;;;;;;5054711;28;20047;-70
2022/03/18 12:35:44;;;;;;;6.57;2.00;;;;;;;;;;5055193;28;20021;-71
2022/03/18 12:38:10;;;;;;;6.18;2.38;;;;;;;;;;5055239;28;20039;-70
2022/03/18 12:40:37;;;;;;;5.55;2.35;;;;;;;;;;5054585;28;20029;-70
2022/03/18 12:43:04;;;;;;;4.40;2.22;;;16.20;46.20;;;;;;5054517;28;20029;-70
2022/03/18 12:45:41;;;;;;;2.80;1.70;;;;;;;;;;5054406;28;20020;-71
2022/03/18 12:48:27;;;;;;;3.55;1.83;;;;;;;;;;5055022;28;20515;-72
2022/03/18 12:50:55;;;;;;;4.22;2.13;;;16.20;44.40;;;;;;5055000;28;20017;-72
2022/03/18 12:53:23;;;;;;;2.75;1.70;;;16.50;46.50;;;;;;5054317;28;20025;-71
2022/03/18 12:55:54;;;;;;;3.80;1.90;;;16.60;46.10;;;;;;5054277;28;20021;-72
2022/03/18 12:58:21;;;;;;;1.88;1.60;;;16.60;45.80;;;;;;5054268;28;20103;-70
2022/03/18 13:00:54;;;;;;;4.00;2.03;;;16.50;45.30;;;;;;5036389;28;20017;-70
2022/03/18 13:03:25;;;;;;;5.28;2.20;;;16.50;45.80;;;;;;5054207;28;20063;-70
2022/03/18 13:05:52;;;;;;;3.97;2.30;;;16.60;46.50;;;;;;5052664;28;20102;-70
2022/03/18 13:08:22;;;;;;;4.30;2.28;;;16.50;43.80;;;;;;5074315;28;20044;-69
2022/03/18 13:10:59;;;;;;;4.72;2.20;;;16.50;47.80;;;;;;5074075;28;20066;-70
2022/03/18 13:13:27;;;;;;;3.70;2.10;;;16.60;50.30;;;;;;5073924;28;20090;-70
2022/03/18 13:16:00;;;;;;;8.40;2.83;;;16.70;49.40;;;;;;5073124;28;20039;-69
2022/03/18 13:18:34;;;;;;;7.00;2.22;;;16.70;48.10;;;;;;5074520;28;20024;-70
2022/03/18 13:21:03;;;;;;;5.43;2.13;;;16.70;49.70;;;;;;5074092;28;20497;-71
2022/03/18 13:23:30;;;;;;;5.22;2.17;;;16.90;50.30;;;;;;5073811;28;20389;-72
2022/03/18 13:25:57;;;;;;;5.70;1.80;;;16.80;47.50;;;;;;5073650;28;20477;-70
2022/03/18 13:28:25;;;;;;;4.20;2.00;;;16.70;47.10;;;;;;5073700;28;20079;-70